M I D A S
Marine Information and Data Acquisition System
Tripno 1762 of the Zeeleeuw from 2009-07-10 07:18:04 to 2009-07-10 14:34:13
Back to CruiseResearch ActivitiesStationsMapUnderway DataData graphs

EquipmentUnitsComment
TimeDGPSUTC
LatitudeDGPSDM.mWGS84
LongitudeDGPSDM.mWGS84
HeadingGyrodeg 
SOGDGPSknotsSpeed over ground
COGDGPSdegCourse over ground
DepthEcho soundermeters200 kHz
Missing or incorrect values are displayed as -999
Navigation data collected by the RV Zeeleeuw from 2009-07-10 06:19:00 to 2009-07-10 14:42:13
Time Latitude Longitude Heading SOG COG Depth
2009-07-10 06:20:05 51°13.661 2°55.962 127.7 0.1 184 -999
2009-07-10 06:21:05 51°13.661 2°55.962 127.2 -999 78 -999
2009-07-10 06:22:05 51°13.661 2°55.962 127.1 -999 22 -999
2009-07-10 06:23:05 51°13.661 2°55.962 127.8 0.1 192 -999
2009-07-10 06:24:05 51°13.662 2°55.962 127.8 -999 172 -999
2009-07-10 06:25:05 51°13.662 2°55.961 127.3 0.1 207 -999
2009-07-10 06:26:05 51°13.663 2°55.961 128 -999 214 -999
2009-07-10 06:27:05 51°13.663 2°55.961 127.2 -999 42 -999
2009-07-10 06:28:05 51°13.662 2°55.961 127.1 -999 176 -999
2009-07-10 06:29:05 51°13.662 2°55.961 127 -999 243 -999
2009-07-10 06:30:05 51°13.662 2°55.96 126.9 -999 7 -999
2009-07-10 06:31:05 51°13.662 2°55.96 127.6 0.1 206 -999
2009-07-10 06:32:05 51°13.662 2°55.96 127.8 -999 12 -999
2009-07-10 06:33:05 51°13.662 2°55.96 127.3 -999 220 -999
2009-07-10 06:34:05 51°13.662 2°55.959 127.7 -999 108 -999
2009-07-10 06:35:05 51°13.663 2°55.96 127.8 -999 191 -999
2009-07-10 06:36:05 51°13.663 2°55.96 127.1 -999 95 -999
2009-07-10 06:37:05 51°13.663 2°55.96 127.3 0.1 198 -999
2009-07-10 06:38:05 51°13.663 2°55.959 127.2 0.1 19 -999
2009-07-10 06:39:05 51°13.663 2°55.959 127.8 -999 112 -999
2009-07-10 06:40:05 51°13.662 2°55.959 128 -999 100 -999
2009-07-10 06:41:05 51°13.662 2°55.959 127.9 0.1 234 -999
2009-07-10 06:42:05 51°13.662 2°55.959 127.1 0.1 199 -999
2009-07-10 06:43:05 51°13.662 2°55.959 127.7 -999 274 -999
2009-07-10 06:44:06 51°13.663 2°55.959 127.4 -999 125 -999
2009-07-10 06:45:06 51°13.662 2°55.957 127 -999 77 -999
2009-07-10 06:46:06 51°13.662 2°55.958 127.1 -999 216 -999
2009-07-10 06:47:06 51°13.663 2°55.958 127.7 -999 32 -999
2009-07-10 06:48:06 51°13.663 2°55.959 127.1 0.1 6 -999
2009-07-10 06:49:06 51°13.663 2°55.959 127.4 -999 37 -999
2009-07-10 06:50:06 51°13.663 2°55.959 127.6 -999 41 -999
2009-07-10 06:51:06 51°13.663 2°55.958 127.8 -999 181 -999
2009-07-10 06:52:06 51°13.663 2°55.958 127.8 -999 142 -999
2009-07-10 06:53:06 51°13.663 2°55.959 127.3 -999 34 -999
2009-07-10 06:54:06 51°13.664 2°55.959 127.6 -999 302 -999
2009-07-10 06:55:06 51°13.664 2°55.96 127.4 -999 304 -999
2009-07-10 06:56:06 51°13.663 2°55.96 127.6 -999 87 -999
2009-07-10 06:57:06 51°13.665 2°55.96 127.2 -999 160 -999
2009-07-10 06:58:06 51°13.665 2°55.96 127.5 -999 89 -999
2009-07-10 06:59:06 51°13.665 2°55.959 127.6 -999 50 -999
2009-07-10 07:00:05 51°13.664 2°55.959 126.1 0.1 246 5.5
2009-07-10 07:01:05 51°13.664 2°55.959 125.9 -999 260 5.4
2009-07-10 07:02:05 51°13.664 2°55.959 125.5 -999 105 -999
2009-07-10 07:03:05 51°13.663 2°55.959 126.1 -999 212 5.3
2009-07-10 07:04:05 51°13.663 2°55.959 126.3 -999 47 5.2
2009-07-10 07:05:05 51°13.663 2°55.96 126.5 -999 249 5.2
2009-07-10 07:06:05 51°13.662 2°55.96 126.3 -999 92 -999
2009-07-10 07:07:05 51°13.662 2°55.96 126.2 -999 143 -999
2009-07-10 07:08:04 51°13.663 2°55.959 126.4 -999 357 5.3
2009-07-10 07:09:04 51°13.663 2°55.959 126.2 -999 32 5.2
2009-07-10 07:10:03 51°13.663 2°55.959 126.3 -999 321 5.2
2009-07-10 07:11:04 51°13.662 2°55.96 126.2 -999 114 5.2
2009-07-10 07:12:05 51°13.662 2°55.961 126.3 -999 7 5.4
2009-07-10 07:13:04 51°13.662 2°55.96 126 -999 321 5.1
2009-07-10 07:14:03 51°13.663 2°55.959 126 -999 338 5.1
2009-07-10 07:15:02 51°13.662 2°55.96 126.4 -999 3 5.1
2009-07-10 07:16:02 51°13.662 2°55.961 126.1 -999 341 5.1
2009-07-10 07:17:01 51°13.662 2°55.96 126.2 -999 341 5.1
2009-07-10 07:18:01 51°13.663 2°55.959 125.7 -999 236 5.1
2009-07-10 07:19:01 51°13.662 2°55.96 125.9 -999 258 5.1
2009-07-10 07:20:01 51°13.662 2°55.96 125.8 0.1 209 5.1
2009-07-10 07:21:02 51°13.662 2°55.96 125.9 -999 337 5.1
2009-07-10 07:22:01 51°13.662 2°55.96 125.6 -999 217 5.1
2009-07-10 07:23:02 51°13.662 2°55.96 126.4 -999 106 5.1
2009-07-10 07:24:01 51°13.662 2°55.959 125.7 -999 144 5.1
2009-07-10 07:25:01 51°13.663 2°55.959 125.6 0.1 174 5
2009-07-10 07:26:01 51°13.663 2°55.959 125.8 -999 337 5
2009-07-10 07:27:01 51°13.662 2°55.96 126.8 -999 180 5
2009-07-10 07:28:02 51°13.662 2°55.96 125.7 -999 76 -999
2009-07-10 07:29:01 51°13.662 2°55.96 124.1 -999 197 5
2009-07-10 07:30:02 51°13.662 2°55.959 118.1 -999 197 5.1
2009-07-10 07:31:01 51°13.662 2°55.955 110.8 1.1 289 5.2
2009-07-10 07:32:05 51°13.681 2°55.881 109.8 3.7 291 -999
2009-07-10 07:33:05 51°13.699 2°55.789 104.2 3.3 284 -999
2009-07-10 07:34:05 51°13.706 2°55.763 67.1 0.2 160 4.6
2009-07-10 07:35:05 51°13.695 2°55.744 39.7 1.6 31 -999
2009-07-10 07:36:05 51°13.704 2°55.754 4.2 2 1 -999
2009-07-10 07:37:03 51°13.768 2°55.692 328.3 6.7 327 10.3
2009-07-10 07:38:01 51°13.874 2°55.599 335.6 7.9 334 10.6
2009-07-10 07:39:02 51°13.997 2°55.505 336.3 8.2 336 10.5
2009-07-10 07:40:01 51°14.12 2°55.416 335.4 8.2 334 10.5
2009-07-10 07:41:02 51°14.234 2°55.295 321 8.3 319 10.4
2009-07-10 07:42:01 51°14.337 2°55.125 313.8 9.8 312 10.2
2009-07-10 07:43:01 51°14.421 2°54.895 285.3 10.4 276 9.9
2009-07-10 07:44:01 51°14.385 2°54.614 248 11.6 246 9.3
2009-07-10 07:45:01 51°14.299 2°54.331 247.5 12 244 8.4
2009-07-10 07:46:01 51°14.211 2°54.045 247.9 12 245 8.2
2009-07-10 07:47:02 51°14.124 2°53.754 248.4 11.9 242 8.9
2009-07-10 07:48:02 51°14.038 2°53.472 247.7 11.8 245 8.1
2009-07-10 07:49:01 51°13.952 2°53.191 247.4 12 247 9.1
2009-07-10 07:50:02 51°13.863 2°52.901 248.3 12 245 9.5
2009-07-10 07:51:01 51°13.779 2°52.617 249.8 12 245 9.3
2009-07-10 07:52:01 51°13.693 2°52.331 247.2 11.9 247 9.5
2009-07-10 07:53:02 51°13.604 2°52.037 248.6 12.1 246 9.8
2009-07-10 07:54:02 51°13.534 2°51.74 263.8 11.8 262 9.9
2009-07-10 07:55:02 51°13.513 2°51.548 264.2 5.1 254 10.6
2009-07-10 07:56:02 51°13.474 2°51.465 232.3 3.2 223 10.5
2009-07-10 07:57:01 51°13.437 2°51.411 229.6 3.1 217 10.5
2009-07-10 07:58:01 51°13.392 2°51.356 211.3 3.6 213 10.3
2009-07-10 07:59:01 51°13.327 2°51.321 189.9 4.7 200 10.2
2009-07-10 08:00:02 51°13.263 2°51.266 217.9 4.1 211 9.8
2009-07-10 08:01:01 51°13.219 2°51.201 234 3.5 235 9.5
2009-07-10 08:02:02 51°13.174 2°51.141 219.8 3.3 216 9.5
2009-07-10 08:03:01 51°13.128 2°51.09 220.7 3.4 214 9.8
2009-07-10 08:04:02 51°13.08 2°51.041 210.9 3.5 214 9.6
2009-07-10 08:05:01 51°13.029 2°50.996 208.7 3.5 209 9.6
2009-07-10 08:06:02 51°12.978 2°50.947 208.1 3.7 207 9.3
2009-07-10 08:07:01 51°12.927 2°50.903 209 3.6 204 9.6
2009-07-10 08:08:02 51°12.876 2°50.852 212.2 3.6 219 8.9
2009-07-10 08:09:02 51°12.829 2°50.801 220.8 3.4 213 9.1
2009-07-10 08:10:02 51°12.786 2°50.742 226.7 3.4 232 8.5
2009-07-10 08:11:02 51°12.744 2°50.681 231 3.4 220 9
2009-07-10 08:12:01 51°12.704 2°50.618 237.4 3.5 226 8.7
2009-07-10 08:13:01 51°12.667 2°50.55 240.4 3.4 235 8.5
2009-07-10 08:14:02 51°12.629 2°50.483 238.7 3.4 225 8.8
2009-07-10 08:15:02 51°12.592 2°50.417 240.9 3.3 230 8.7
2009-07-10 08:16:01 51°12.557 2°50.351 244 3.3 234 8.3
2009-07-10 08:17:02 51°12.524 2°50.277 251.1 3.4 236 9.2
2009-07-10 08:18:02 51°12.493 2°50.207 252.8 3.4 232 8.5
2009-07-10 08:19:02 51°12.465 2°50.132 259.2 3.3 245 8.6
2009-07-10 08:20:02 51°12.439 2°50.056 263.1 3.2 247 8.3
2009-07-10 08:21:01 51°12.413 2°49.983 265.1 3.3 235 8.3
2009-07-10 08:22:01 51°12.389 2°49.904 270.1 3.6 244 8.6
2009-07-10 08:23:01 51°12.373 2°49.817 277.3 3.3 255 8.6
2009-07-10 08:24:02 51°12.359 2°49.726 280.3 3.4 258 8.5
2009-07-10 08:25:02 51°12.346 2°49.637 274.5 3.4 262 8.1
2009-07-10 08:26:01 51°12.329 2°49.551 273 3.3 254 8.3
2009-07-10 08:27:02 51°12.299 2°49.468 240.5 3.8 229 8.5
2009-07-10 08:28:02 51°12.254 2°49.4 222.2 3.9 217 8.9
2009-07-10 08:29:02 51°12.201 2°49.338 219.8 4.1 212 8.7
2009-07-10 08:30:01 51°12.153 2°49.27 228 3.8 224 8.9
2009-07-10 08:31:02 51°12.108 2°49.2 230.8 3.8 229 7.8
2009-07-10 08:32:01 51°12.065 2°49.128 234.1 3.9 230 8.2
2009-07-10 08:33:01 51°12.025 2°49.058 241.8 3 225 8.2
2009-07-10 08:34:02 51°11.994 2°49.001 254.6 2.8 233 8.3
2009-07-10 08:35:01 51°11.97 2°48.934 262.6 3.3 240 8.2
2009-07-10 08:36:02 51°11.945 2°48.854 262.4 3.3 244 8.2
2009-07-10 08:37:01 51°11.927 2°48.767 291.1 3.6 270 8.2
2009-07-10 08:38:02 51°11.946 2°48.707 359.2 2 336 8.3
2009-07-10 08:39:02 51°11.977 2°48.709 24.5 1.8 353 8.3
2009-07-10 08:40:02 51°11.998 2°48.712 17.7 1.2 354 8.5
2009-07-10 08:41:02 51°12.031 2°48.724 26.9 3.4 22 8.6
2009-07-10 08:42:02 51°12.108 2°48.822 46.7 7.6 45 8.2
2009-07-10 08:43:02 51°12.208 2°48.997 51.6 9.7 50 8.8
2009-07-10 08:44:01 51°12.308 2°49.195 53.8 9.7 54 8.7
2009-07-10 08:45:02 51°12.412 2°49.399 52.5 9.8 53 9.1
2009-07-10 08:46:01 51°12.515 2°49.592 50.5 9.6 45 9.3
2009-07-10 08:47:01 51°12.617 2°49.794 51.9 9.7 47 9.4
2009-07-10 08:48:02 51°12.714 2°50.006 55.6 9.6 58 9.7
2009-07-10 08:49:02 51°12.802 2°50.222 56.9 9.8 61 9.8
2009-07-10 08:50:02 51°12.89 2°50.44 56.6 9.7 54 9.5
2009-07-10 08:51:02 51°12.986 2°50.648 54 9.8 50 9.5
2009-07-10 08:52:02 51°13.084 2°50.854 53.7 9.8 56 10.3
2009-07-10 08:53:01 51°13.192 2°51.042 48.3 9.9 50 10.7
2009-07-10 08:54:02 51°13.31 2°51.23 46.8 9.9 48 10.8
2009-07-10 08:55:02 51°13.378 2°51.337 39.1 2.8 35 10.1
2009-07-10 08:56:02 51°13.39 2°51.341 13.2 0.2 283 11
2009-07-10 08:57:02 51°13.385 2°51.333 13.3 0.6 184 10.9
2009-07-10 08:58:02 51°13.372 2°51.322 12.6 1.1 214 10.6
2009-07-10 08:59:02 51°13.356 2°51.312 17.7 1.1 194 10.9
2009-07-10 09:00:01 51°13.336 2°51.303 29 1.4 195 10.2
2009-07-10 09:01:02 51°13.314 2°51.289 41.9 1.5 215 10
2009-07-10 09:02:02 51°13.291 2°51.274 49.8 1.6 206 10.6
2009-07-10 09:03:02 51°13.269 2°51.259 53.5 1.4 200 10.3
2009-07-10 09:04:02 51°13.248 2°51.246 47.4 1.5 188 10.3
2009-07-10 09:05:02 51°13.239 2°51.251 62.5 1 85 10.3
2009-07-10 09:06:02 51°13.215 2°51.299 130 3.8 157 10
2009-07-10 09:07:01 51°13.133 2°51.269 204.8 7.7 209 9.8
2009-07-10 09:08:02 51°13.015 2°51.092 233.9 10.8 226 9.9
2009-07-10 09:09:02 51°12.904 2°50.846 237.4 12 237 8.7
2009-07-10 09:10:02 51°12.788 2°50.575 240.1 12.3 235 9.3
2009-07-10 09:11:02 51°12.675 2°50.298 239.7 12.4 244 8.6
2009-07-10 09:12:02 51°12.56 2°50.022 239 12.5 236 9.3
2009-07-10 09:13:01 51°12.483 2°49.725 255.9 12.2 255 9.5
2009-07-10 09:14:01 51°12.421 2°49.414 256.6 12.3 253 9.7
2009-07-10 09:15:02 51°12.343 2°49.108 248.1 12.2 242 9.7
2009-07-10 09:16:02 51°12.258 2°48.813 248.1 12.3 247 10.1
2009-07-10 09:17:02 51°12.175 2°48.515 248.6 12.5 244 10.2
2009-07-10 09:18:02 51°12.093 2°48.214 249.8 12.2 249 9.4
2009-07-10 09:19:02 51°12.009 2°47.915 250.3 12.4 246 10.2
2009-07-10 09:20:02 51°11.928 2°47.612 250.4 12.4 247 10.6
2009-07-10 09:21:02 51°11.847 2°47.312 248.3 12.1 245 10.5
2009-07-10 09:22:02 51°11.759 2°47.02 246 12.2 247 10.8
2009-07-10 09:23:02 51°11.673 2°46.731 246.1 12.2 245 10.6
2009-07-10 09:24:02 51°11.585 2°46.434 247.5 12.3 243 10.8
2009-07-10 09:25:02 51°11.499 2°46.14 249.3 12.3 242 10.7
2009-07-10 09:26:02 51°11.413 2°45.844 248.1 12.2 244 10.6
2009-07-10 09:27:02 51°11.326 2°45.549 246.2 12.3 251 10.2
2009-07-10 09:28:02 51°11.242 2°45.257 250.3 11.8 247 9.8
2009-07-10 09:29:01 51°11.173 2°44.999 242.2 7.7 239 9.8
2009-07-10 09:30:02 51°11.094 2°44.91 207 4.6 206 9.6
2009-07-10 09:31:02 51°11.032 2°44.866 200.6 3.7 206 9.5
2009-07-10 09:32:02 51°10.978 2°44.812 218.6 3.7 218 9.1
2009-07-10 09:33:01 51°10.936 2°44.747 234.2 3.6 233 8.8
2009-07-10 09:34:01 51°10.896 2°44.672 236.7 3.9 236 8.9
2009-07-10 09:35:02 51°10.855 2°44.595 235.1 3.6 229 8.9
2009-07-10 09:36:02 51°10.816 2°44.528 235.2 3.5 225 9
2009-07-10 09:37:01 51°10.779 2°44.459 241.3 3.6 228 8.8
2009-07-10 09:38:02 51°10.745 2°44.382 246.1 3.4 243 8.5
2009-07-10 09:39:02 51°10.715 2°44.299 257.7 3.8 245 8.4
2009-07-10 09:40:02 51°10.692 2°44.209 268.2 3.8 248 8.9
2009-07-10 09:41:02 51°10.683 2°44.112 281 3.6 265 8.5
2009-07-10 09:42:02 51°10.678 2°44.012 279.5 4 264 8.3
2009-07-10 09:43:02 51°10.668 2°43.912 274.5 3.7 259 8.3
2009-07-10 09:44:02 51°10.653 2°43.816 271.3 3.9 251 9
2009-07-10 09:45:02 51°10.638 2°43.72 271.1 3.7 258 8.9
2009-07-10 09:46:01 51°10.622 2°43.631 269.7 3.6 251 9.4
2009-07-10 09:47:02 51°10.606 2°43.538 269.8 3.6 257 9.1
2009-07-10 09:48:02 51°10.59 2°43.445 269.9 3.7 254 9
2009-07-10 09:49:02 51°10.575 2°43.349 270.8 3.7 259 8.7
2009-07-10 09:50:02 51°10.56 2°43.254 269.8 3.8 255 8.9
2009-07-10 09:51:02 51°10.546 2°43.158 272 3.8 257 9
2009-07-10 09:52:02 51°10.534 2°43.06 271.3 3.8 261 9.2
2009-07-10 09:53:02 51°10.52 2°42.961 271.6 3.7 265 8.9
2009-07-10 09:54:01 51°10.508 2°42.863 270.9 3.9 258 9.4
2009-07-10 09:55:02 51°10.495 2°42.762 270.9 3.8 264 8.8
2009-07-10 09:56:01 51°10.482 2°42.667 270.1 3.8 252 9.6
2009-07-10 09:57:02 51°10.468 2°42.569 270.1 3.7 255 9.6
2009-07-10 09:58:01 51°10.453 2°42.475 271.2 3.9 256 9.8
2009-07-10 09:59:02 51°10.441 2°42.37 270.8 4 261 9.4
2009-07-10 10:00:01 51°10.419 2°42.274 245.6 4 240 9.6
2009-07-10 10:01:01 51°10.371 2°42.2 212.3 4.2 207 9.7
2009-07-10 10:02:02 51°10.307 2°42.153 195.9 4.2 203 9
2009-07-10 10:03:01 51°10.242 2°42.125 186 4.1 194 9
2009-07-10 10:04:01 51°10.175 2°42.103 191.1 3.9 195 8.9
2009-07-10 10:05:02 51°10.115 2°42.052 214.2 4.1 221 8.5
2009-07-10 10:06:01 51°10.066 2°41.985 223.2 3.9 224 9
2009-07-10 10:07:01 51°10.022 2°41.913 234.4 3.8 235 8.4
2009-07-10 10:08:02 51°9.987 2°41.835 247.1 2.9 237 8.5
2009-07-10 10:09:01 51°9.963 2°41.786 245.2 2 223 9
2009-07-10 10:10:01 51°9.945 2°41.754 240.1 1.4 217 9
2009-07-10 10:11:02 51°9.928 2°41.738 230.6 1 203 8.9
2009-07-10 10:12:01 51°9.909 2°41.726 205.6 1.7 199 8.7
2009-07-10 10:13:01 51°9.866 2°41.725 145.6 3.5 160 8.7
2009-07-10 10:14:02 51°9.864 2°41.834 64.1 6.5 64 8.8
2009-07-10 10:15:01 51°9.922 2°42.022 63.8 8.8 65 8.9
2009-07-10 10:16:01 51°9.993 2°42.236 64.5 9.4 62 8.6
2009-07-10 10:17:02 51°10.078 2°42.434 41 8.6 40 8.8
2009-07-10 10:18:01 51°10.187 2°42.524 22.7 4.6 13 8.7
2009-07-10 10:19:01 51°10.221 2°42.54 37.9 1.1 46 9
2009-07-10 10:20:02 51°10.228 2°42.552 38.1 0.4 31 8.6
2009-07-10 10:21:01 51°10.226 2°42.555 30.3 0.4 189 8.9
2009-07-10 10:22:01 51°10.219 2°42.548 22.4 0.6 219 8.9
2009-07-10 10:23:01 51°10.209 2°42.543 24.8 0.6 203 8.9
2009-07-10 10:24:02 51°10.197 2°42.537 25.1 0.8 194 8.7
2009-07-10 10:25:02 51°10.195 2°42.535 11.6 1.4 353 8.8
2009-07-10 10:26:02 51°10.225 2°42.497 313.5 3.5 295 9
2009-07-10 10:27:02 51°10.244 2°42.342 283.5 8.2 277 8.7
2009-07-10 10:28:02 51°10.236 2°42.092 267.4 10 262 9.1
2009-07-10 10:29:02 51°10.212 2°41.826 266.3 10.1 262 9.5
2009-07-10 10:30:02 51°10.189 2°41.539 267.5 11.6 262 9.6
2009-07-10 10:31:02 51°10.166 2°41.225 267.1 12 265 10.2
2009-07-10 10:32:02 51°10.149 2°40.907 268.9 12.1 263 10.5
2009-07-10 10:33:02 51°10.131 2°40.584 268.6 12.3 265 10.9
2009-07-10 10:34:02 51°10.112 2°40.258 269.2 12.4 265 11.4
2009-07-10 10:35:02 51°10.093 2°39.932 268.8 12.4 266 11.5
2009-07-10 10:36:02 51°10.076 2°39.608 269.9 12.3 266 12.5
2009-07-10 10:37:02 51°10.059 2°39.291 269.2 11.8 267 13.1
2009-07-10 10:38:02 51°10.053 2°38.979 277.4 11.6 274 14.2
2009-07-10 10:39:02 51°10.072 2°38.669 280.9 11.9 277 15.6
2009-07-10 10:40:02 51°10.092 2°38.359 280.1 11.7 275 16.3
2009-07-10 10:41:02 51°10.11 2°38.047 279.8 11.8 275 17.1
2009-07-10 10:42:02 51°10.121 2°37.735 279.5 11.8 271 17.5
2009-07-10 10:43:02 51°10.135 2°37.423 279.5 11.8 275 17.7
2009-07-10 10:44:02 51°10.151 2°37.111 278.4 11.8 274 18.3
2009-07-10 10:45:02 51°10.216 2°36.838 311 11 305 18.2
2009-07-10 10:46:02 51°10.336 2°36.623 318.2 10.8 315 14.5
2009-07-10 10:47:02 51°10.456 2°36.416 318.3 10.5 312 9.7
2009-07-10 10:48:02 51°10.579 2°36.221 331.6 10 330 11.4
2009-07-10 10:49:02 51°10.736 2°36.205 11.6 9.6 14 11.6
2009-07-10 10:50:02 51°10.886 2°36.298 28.4 9.6 27 12.1
2009-07-10 10:51:02 51°11.034 2°36.394 19.9 9.7 17 12.1
2009-07-10 10:52:02 51°11.192 2°36.454 16 9.6 13 11.6
2009-07-10 10:53:02 51°11.346 2°36.52 21.7 9.6 18 11.4
2009-07-10 10:54:02 51°11.498 2°36.604 22.5 9.6 20 11.5
2009-07-10 10:55:02 51°11.649 2°36.686 22.4 10 18 11.7
2009-07-10 10:56:02 51°11.803 2°36.768 21.8 9.7 20 10.4
2009-07-10 10:57:02 51°11.956 2°36.851 22.6 9.8 20 11.4
2009-07-10 10:58:02 51°12.112 2°36.933 20.8 10 18 10.3
2009-07-10 10:59:02 51°12.266 2°37.016 21.6 9.7 19 11.3
2009-07-10 11:00:01 51°12.415 2°37.098 22.5 9.7 16 10.6
2009-07-10 11:01:02 51°12.572 2°37.184 22.9 9.8 20 11.6
2009-07-10 11:02:02 51°12.727 2°37.266 19.7 9.7 18 12.2
2009-07-10 11:03:02 51°12.887 2°37.305 7.1 9.9 3 10.8
2009-07-10 11:04:02 51°13.053 2°37.289 0.7 10.1 355 10.6
2009-07-10 11:05:02 51°13.22 2°37.272 1.7 9.7 359 9.4
2009-07-10 11:06:02 51°13.386 2°37.243 357.2 10 355 9.2
2009-07-10 11:07:02 51°13.553 2°37.209 357.8 10 352 10.5
2009-07-10 11:08:02 51°13.722 2°37.172 356.9 10.5 350 18.8
2009-07-10 11:09:02 51°13.893 2°37.12 355 10.3 350 20.4
2009-07-10 11:10:02 51°14.057 2°37.046 344.4 10.3 336 18.4
2009-07-10 11:11:02 51°14.208 2°36.916 336.2 10.4 329 13.6
2009-07-10 11:12:01 51°14.348 2°36.769 332.6 10.1 328 11.8
2009-07-10 11:13:02 51°14.492 2°36.617 334 10.3 327 10.2
2009-07-10 11:14:02 51°14.637 2°36.459 331 10.6 325 13.6
2009-07-10 11:15:02 51°14.775 2°36.287 324.8 10.6 318 14.5
2009-07-10 11:16:02 51°14.896 2°36.086 315.1 10.5 308 18.2
2009-07-10 11:17:02 51°15 2°35.851 310.2 11 304 18
2009-07-10 11:18:02 51°15.1 2°35.613 311.8 11 305 20.5
2009-07-10 11:19:02 51°15.208 2°35.379 313.4 10.8 307 25.3
2009-07-10 11:20:02 51°15.25 2°35.101 283.3 11.3 278 26.3
2009-07-10 11:21:02 51°15.303 2°34.814 299.8 11.2 294 27.2
2009-07-10 11:22:02 51°15.398 2°34.563 311.3 11 302 27.2
2009-07-10 11:23:02 51°15.496 2°34.311 311.1 11.2 303 26.1
2009-07-10 11:24:02 51°15.591 2°34.062 311.2 11.1 300 24
2009-07-10 11:25:02 51°15.687 2°33.819 313.7 10.7 306 15.3
2009-07-10 11:26:02 51°15.789 2°33.587 313.3 10.7 303 10.9
2009-07-10 11:27:02 51°15.89 2°33.369 313.7 10 307 10.5
2009-07-10 11:28:02 51°15.991 2°33.162 312.7 9.4 308 9.9
2009-07-10 11:29:02 51°16.093 2°32.957 314 10 306 9.3
2009-07-10 11:30:02 51°16.173 2°32.724 282.9 10.6 278 22.2
2009-07-10 11:31:02 51°16.152 2°32.433 261.7 11.4 261 25.6
2009-07-10 11:32:02 51°16.111 2°32.139 260.5 11.3 257 27.2
2009-07-10 11:33:02 51°16.069 2°31.849 259.9 11.2 257 28.1
2009-07-10 11:34:02 51°16.027 2°31.556 260.4 11.3 258 27.5
2009-07-10 11:35:02 51°15.985 2°31.264 261.7 11.6 256 28.6
2009-07-10 11:36:02 51°15.946 2°30.963 267.1 11.5 263 28.7
2009-07-10 11:37:02 51°15.916 2°30.655 268.2 11.7 261 30.2
2009-07-10 11:38:02 51°15.887 2°30.346 267.4 11.8 264 28.7
2009-07-10 11:39:02 51°15.855 2°30.036 267.6 11.6 262 29.5
2009-07-10 11:40:02 51°15.821 2°29.728 267.7 11.8 261 29.6
2009-07-10 11:41:02 51°15.798 2°29.418 272.3 11.8 264 29.7
2009-07-10 11:42:02 51°15.789 2°29.112 274.7 11.5 267 30.7
2009-07-10 11:43:02 51°15.779 2°28.806 273.3 11.6 266 30.1
2009-07-10 11:44:02 51°15.767 2°28.498 274.6 11.7 264 29.3
2009-07-10 11:45:02 51°15.755 2°28.189 273.7 11.7 264 29.6
2009-07-10 11:46:02 51°15.743 2°27.88 274.4 11.6 265 28.6
2009-07-10 11:47:02 51°15.726 2°27.569 273.5 11.7 265 27.3
2009-07-10 11:48:02 51°15.712 2°27.259 273.3 11.8 267 25.6
2009-07-10 11:49:02 51°15.7 2°26.952 273.3 11.5 267 20.5
2009-07-10 11:50:02 51°15.696 2°26.653 281.9 10.9 277 15.5
2009-07-10 11:51:02 51°15.744 2°26.382 300.4 10.5 290 14.6
2009-07-10 11:52:02 51°15.825 2°26.132 304.1 10.4 304 13.6
2009-07-10 11:53:02 51°15.922 2°25.908 310.7 10.2 312 11.9
2009-07-10 11:54:02 51°16.027 2°25.699 310.2 10.2 306 12.9
2009-07-10 11:55:02 51°16.151 2°25.521 328.3 9.8 327 13.9
2009-07-10 11:56:02 51°16.31 2°25.459 5.9 10.2 3 19.6
2009-07-10 11:57:02 51°16.462 2°25.58 46.4 10.9 45 21.8
2009-07-10 11:58:02 51°16.565 2°25.662 349.1 4.4 345 23.6
2009-07-10 11:59:02 51°16.593 2°25.596 265 3 253 27.4
2009-07-10 12:00:02 51°16.548 2°25.57 172.3 3.8 166 26.1
2009-07-10 12:01:02 51°16.488 2°25.607 170.5 3.7 162 22
2009-07-10 12:02:02 51°16.43 2°25.614 198.2 3.4 178 19.3
2009-07-10 12:03:02 51°16.38 2°25.599 209.2 3 194 17.9
2009-07-10 12:04:02 51°16.331 2°25.581 205.9 3 188 15.9
2009-07-10 12:05:02 51°16.281 2°25.565 209.8 3.3 186 15.6
2009-07-10 12:06:02 51°16.23 2°25.545 214.9 3 203 13.9
2009-07-10 12:07:02 51°16.185 2°25.509 231.5 3.1 223 13.6
2009-07-10 12:08:02 51°16.149 2°25.451 242.8 3.4 235 13.2
2009-07-10 12:09:02 51°16.114 2°25.383 242.8 3.3 232 11.8
2009-07-10 12:10:02 51°16.074 2°25.319 238.8 3.5 227 14.3
2009-07-10 12:11:02 51°16.037 2°25.256 237.9 3.2 226 17
2009-07-10 12:12:02 51°16 2°25.192 238.8 3.5 227 18.8
2009-07-10 12:13:02 51°15.96 2°25.133 226.5 3.4 208 19.8
2009-07-10 12:14:02 51°15.906 2°25.098 202.5 3.5 199 18.9
2009-07-10 12:15:02 51°15.841 2°25.098 191.6 3.7 186 17.2
2009-07-10 12:16:02 51°15.774 2°25.105 193.8 3.9 184 17.5
2009-07-10 12:17:02 51°15.716 2°25.086 215.3 3.5 203 16.8
2009-07-10 12:18:02 51°15.661 2°25.055 218.4 3.9 186 17.6
2009-07-10 12:19:02 51°15.612 2°25.013 227.2 3.1 213 17.9
2009-07-10 12:20:02 51°15.557 2°24.989 203.3 3.7 178 18
2009-07-10 12:21:02 51°15.492 2°24.985 195.8 4.1 180 19.2
2009-07-10 12:22:02 51°15.427 2°24.986 196.5 3.6 178 18.3
2009-07-10 12:23:02 51°15.363 2°24.991 194.3 4.1 171 18.7
2009-07-10 12:24:02 51°15.298 2°24.995 195 3.8 183 17.1
2009-07-10 12:25:02 51°15.235 2°24.987 210.2 3.6 191 15.8
2009-07-10 12:26:02 51°15.185 2°24.951 230 3.3 209 15.9
2009-07-10 12:27:02 51°15.144 2°24.901 236 3.4 208 16.3
2009-07-10 12:28:02 51°15.105 2°24.844 237.6 3.3 237 16.4
2009-07-10 12:29:02 51°15.069 2°24.788 242.3 2.9 230 16.7
2009-07-10 12:30:02 51°15.037 2°24.729 243.5 3 224 17.1
2009-07-10 12:31:02 51°15.013 2°24.669 249.8 2.6 246 17.4
2009-07-10 12:32:02 51°15.001 2°24.602 262.1 2.6 252 18.7
2009-07-10 12:33:02 51°15.007 2°24.536 283.9 2.6 295 18.3
2009-07-10 12:34:02 51°15.035 2°24.481 311.7 2.9 338 20.3
2009-07-10 12:35:01 51°15.1 2°24.456 348.3 5.2 359 21.6
2009-07-10 12:36:02 51°15.186 2°24.503 20.1 4 35 21.2
2009-07-10 12:37:02 51°15.227 2°24.568 36.4 3.2 49 21.5
2009-07-10 12:38:02 51°15.25 2°24.633 46.7 2.5 63 21.4
2009-07-10 12:39:02 51°15.297 2°24.698 4.6 5.7 15 20.9
2009-07-10 12:40:02 51°15.421 2°24.767 25.4 9.2 29 21.1
2009-07-10 12:41:02 51°15.586 2°24.88 14.5 11.7 19 20
2009-07-10 12:42:02 51°15.762 2°25.014 15.9 11.5 17 19.4
2009-07-10 12:43:02 51°15.928 2°25.155 32.4 11.8 35 18.7
2009-07-10 12:44:02 51°16.105 2°25.257 19.8 11.5 26 20.1
2009-07-10 12:45:02 51°16.213 2°25.382 40 4.9 49 19.7
2009-07-10 12:46:01 51°16.239 2°25.46 75.6 2.6 77 16.3
2009-07-10 12:47:02 51°16.244 2°25.515 102.9 2.1 75 14.4
2009-07-10 12:48:02 51°16.246 2°25.565 114.4 2.3 75 15.8
2009-07-10 12:49:02 51°16.244 2°25.618 116.2 2.1 94 13.7
2009-07-10 12:50:02 51°16.243 2°25.677 118.4 2.6 83 13.3
2009-07-10 12:51:02 51°16.219 2°25.743 174.3 3.2 148 14
2009-07-10 12:52:02 51°16.179 2°25.738 239.1 2.4 223 14.6
2009-07-10 12:53:02 51°16.184 2°25.685 300.6 2.3 319 13.3
2009-07-10 12:54:02 51°16.222 2°25.679 328.5 2 23 13.8
2009-07-10 12:55:02 51°16.246 2°25.713 341.8 1.7 52 15
2009-07-10 12:56:02 51°16.262 2°25.758 344.6 2.3 70 13.2
2009-07-10 12:57:02 51°16.269 2°25.805 343.4 1.6 85 13.5
2009-07-10 12:58:02 51°16.271 2°25.859 344.2 1.9 88 13.7
2009-07-10 12:59:02 51°16.271 2°25.913 0.1 1.5 89 13.2
2009-07-10 13:00:02 51°16.269 2°25.968 10.4 2.2 93 12.1
2009-07-10 13:01:02 51°16.271 2°26.021 8.9 2.6 69 12.4
2009-07-10 13:02:02 51°16.301 2°26.04 299.7 2 336 12.7
2009-07-10 13:03:02 51°16.284 2°26.016 207 3.2 172 13.3
2009-07-10 13:04:02 51°16.208 2°26.071 174.2 7.1 162 11.1
2009-07-10 13:05:02 51°16.081 2°26.157 154.1 10 141 13.1
2009-07-10 13:06:02 51°16 2°26.437 104.4 12.8 108 15.1
2009-07-10 13:07:02 51°15.98 2°26.769 97.3 12.6 99 15.1
2009-07-10 13:08:02 51°15.965 2°27.102 96.6 12.5 94 21.1
2009-07-10 13:09:02 51°15.968 2°27.434 92.4 12.4 87 26.2
2009-07-10 13:10:02 51°15.973 2°27.759 93.4 12.2 86 28.9
2009-07-10 13:11:02 51°15.97 2°28.081 95 12.1 94 30.5
2009-07-10 13:12:02 51°15.963 2°28.399 94.8 12 94 31
2009-07-10 13:13:02 51°15.958 2°28.714 93 11.8 87 31.2
2009-07-10 13:14:02 51°15.951 2°29.03 95.6 12.2 90 31.6
2009-07-10 13:15:02 51°15.95 2°29.352 94.5 12.2 87 30.9
2009-07-10 13:16:02 51°15.945 2°29.675 95 12.3 92 31
2009-07-10 13:17:02 51°15.942 2°30.004 94.1 12.4 90 31.7
2009-07-10 13:18:02 51°15.939 2°30.33 94.1 12.5 88 31.6
2009-07-10 13:19:02 51°15.937 2°30.658 93.3 12.6 86 30.9
2009-07-10 13:20:02 51°15.933 2°30.987 95.8 12.2 94 31.1
2009-07-10 13:21:02 51°15.93 2°31.313 94.8 12.4 97 30.3
2009-07-10 13:22:02 51°15.927 2°31.641 95.8 12.5 88 29.8
2009-07-10 13:23:02 51°15.922 2°31.97 94.2 12.6 91 28
2009-07-10 13:24:02 51°15.919 2°32.305 93.7 12.6 94 24.1
2009-07-10 13:25:02 51°15.917 2°32.64 90.8 12.4 85 11.2
2009-07-10 13:26:02 51°15.91 2°32.977 95.6 12.9 93 11.4
2009-07-10 13:27:02 51°15.903 2°33.316 95.8 12.9 96 12.2
2009-07-10 13:28:02 51°15.9 2°33.648 92.3 12.5 91 12.8
2009-07-10 13:29:02 51°15.875 2°33.982 102.6 12.8 92 16
2009-07-10 13:30:02 51°15.843 2°34.309 101.7 12.6 92 25
2009-07-10 13:31:02 51°15.815 2°34.637 103.3 12.3 95 28.3
2009-07-10 13:32:02 51°15.798 2°34.956 97.8 11.8 90 28.4
2009-07-10 13:33:02 51°15.781 2°35.276 98.8 12.2 86 29
2009-07-10 13:34:02 51°15.764 2°35.601 99.3 12.4 100 29.6
2009-07-10 13:35:02 51°15.745 2°35.928 100.2 12.3 92 28.6
2009-07-10 13:36:02 51°15.73 2°36.259 97.2 12.6 95 27
2009-07-10 13:37:02 51°15.714 2°36.594 100 12.8 88 20.6
2009-07-10 13:38:02 51°15.688 2°36.921 104.9 12.4 100 15.8
2009-07-10 13:39:02 51°15.642 2°37.241 108.2 12.3 107 15.2
2009-07-10 13:40:02 51°15.587 2°37.559 116.2 12.6 105 14.5
2009-07-10 13:41:02 51°15.532 2°37.879 111.8 12.5 109 13.7
2009-07-10 13:42:02 51°15.481 2°38.204 111.5 12.8 111 15
2009-07-10 13:43:02 51°15.432 2°38.532 107.5 12.5 98 17.3
2009-07-10 13:44:02 51°15.386 2°38.853 109.5 12.6 99 20.6
2009-07-10 13:45:02 51°15.334 2°39.173 111 12.3 109 21.4
2009-07-10 13:46:02 51°15.29 2°39.494 105.7 12.5 95 21
2009-07-10 13:47:02 51°15.253 2°39.816 104.7 12.6 97 19
2009-07-10 13:48:02 51°15.224 2°40.141 102.9 12.4 95 17.3
2009-07-10 13:49:02 51°15.193 2°40.463 103.3 12.4 100 15.3
2009-07-10 13:50:02 51°15.155 2°40.787 104.3 12.3 110 15.9
2009-07-10 13:51:02 51°15.12 2°41.114 103.2 12.7 93 13.9
2009-07-10 13:52:02 51°15.088 2°41.437 102.7 12.6 96 15.5
2009-07-10 13:53:02 51°15.051 2°41.764 104.5 12.9 103 15.8
2009-07-10 13:54:02 51°15.014 2°42.092 106.1 12.5 104 16.3
2009-07-10 13:55:02 51°14.988 2°42.424 100.7 12.7 91 16.9
2009-07-10 13:56:02 51°14.966 2°42.758 98.2 12.6 98 16.1
2009-07-10 13:57:02 51°14.946 2°43.093 98.1 12.9 87 17.2
2009-07-10 13:58:02 51°14.949 2°43.431 90.8 12.9 86 19.2
2009-07-10 13:59:02 51°14.959 2°43.773 91.1 13 88 20.8
2009-07-10 14:00:02 51°14.962 2°44.117 93.4 13.1 89 20.5
2009-07-10 14:01:02 51°14.961 2°44.464 93 13.1 89 19.6
2009-07-10 14:02:02 51°14.959 2°44.802 93.8 12.5 86 19.3
2009-07-10 14:03:02 51°14.956 2°45.126 93.8 12.2 89 17.8
2009-07-10 14:04:02 51°14.954 2°45.449 92.5 12.2 88 17.2
2009-07-10 14:05:02 51°14.951 2°45.774 94.7 12.2 90 15.2
2009-07-10 14:06:02 51°14.949 2°46.1 89.7 12.2 85 14.1
2009-07-10 14:07:02 51°14.953 2°46.425 89.1 12 90 12.4
2009-07-10 14:08:02 51°14.958 2°46.748 93.3 12.3 91 12.5
2009-07-10 14:09:02 51°14.967 2°47.069 91.7 11.7 89 12.4
2009-07-10 14:10:02 51°14.966 2°47.388 94 12.3 94 15.6
2009-07-10 14:11:02 51°14.967 2°47.71 94.2 12 88 16
2009-07-10 14:12:02 51°14.969 2°48.033 94.7 12.3 82 15.7
2009-07-10 14:13:02 51°14.975 2°48.362 92.5 12.6 87 15.9
2009-07-10 14:14:01 51°14.98 2°48.698 92.3 13.1 84 15.5
2009-07-10 14:15:02 51°14.984 2°49.048 95.5 13.1 97 16.1
2009-07-10 14:16:02 51°14.994 2°49.395 92.1 12.7 88 15.3
2009-07-10 14:17:02 51°15.002 2°49.743 92.2 13.3 92 15.6
2009-07-10 14:18:02 51°15.01 2°50.093 94.3 13 89 15.4
2009-07-10 14:19:02 51°15.018 2°50.441 91.5 13 84 15.8
2009-07-10 14:20:02 51°15.026 2°50.786 92.9 13.1 91 15.2
2009-07-10 14:21:02 51°15.032 2°51.133 95.2 13.2 86 15.3
2009-07-10 14:22:02 51°15.032 2°51.478 98.4 12.8 99 15
2009-07-10 14:23:02 51°15 2°51.81 108.7 12.7 106 13.9
2009-07-10 14:24:02 51°14.955 2°52.134 112.3 12.4 105 13.2
2009-07-10 14:25:01 51°14.898 2°52.446 113.8 12.6 108 13.2
2009-07-10 14:26:02 51°14.842 2°52.764 105.4 11.7 101 12.5
2009-07-10 14:27:02 51°14.798 2°53.083 109.1 12.3 101 12.7
2009-07-10 14:28:02 51°14.757 2°53.405 107 12.4 106 13.2
2009-07-10 14:29:02 51°14.712 2°53.721 111.1 12.7 104 13.7
2009-07-10 14:30:03 51°14.676 2°54.055 109.4 13.4 95 14.3
2009-07-10 14:31:02 51°14.613 2°54.36 123.5 12 111 13.5
2009-07-10 14:32:02 51°14.526 2°54.655 123.2 12 118 13.3
2009-07-10 14:33:01 51°14.431 2°54.936 124.9 11.2 123 12.8
2009-07-10 14:34:02 51°14.308 2°55.177 131.1 10.3 131 13.8
2009-07-10 14:35:02 51°14.188 2°55.343 142 9.2 143 13.9
2009-07-10 14:36:02 51°14.056 2°55.456 155 8.8 155 14.3
2009-07-10 14:37:02 51°13.934 2°55.549 155.7 7.4 156 14
2009-07-10 14:38:02 51°13.824 2°55.633 153 7.2 151 14.4
2009-07-10 14:39:01 51°13.737 2°55.739 132.2 5.6 131 14.7
2009-07-10 14:40:02 51°13.691 2°55.844 120.7 4.2 119 12
2009-07-10 14:41:02 51°13.668 2°55.929 108.7 2.5 108 9.8
2009-07-10 14:42:01 51°13.662 2°55.958 119.9 0.3 130 8.7